sensor_id;sensor_type;location;lat;lon;timestamp;P1;durP1;ratioP1;P2;durP2;ratioP2
58496;SDS011;44284;51.310;16.904;2023-05-09T00:01:41;8.27;;;5.03;;
58496;SDS011;44284;51.310;16.904;2023-05-09T00:04:09;10.00;;;5.38;;
58496;SDS011;44284;51.310;16.904;2023-05-09T00:06:35;8.95;;;5.78;;
58496;SDS011;44284;51.310;16.904;2023-05-09T00:09:02;8.35;;;5.60;;
58496;SDS011;44284;51.310;16.904;2023-05-09T00:11:29;11.43;;;5.50;;
58496;SDS011;44284;51.310;16.904;2023-05-09T00:13:55;12.95;;;5.72;;
58496;SDS011;44284;51.310;16.904;2023-05-09T00:16:21;9.27;;;5.50;;
58496;SDS011;44284;51.310;16.904;2023-05-09T00:18:48;10.55;;;5.80;;
58496;SDS011;44284;51.310;16.904;2023-05-09T00:21:14;9.82;;;6.05;;
58496;SDS011;44284;51.310;16.904;2023-05-09T00:23:41;9.25;;;5.90;;
58496;SDS011;44284;51.310;16.904;2023-05-09T00:26:07;9.50;;;5.95;;
58496;SDS011;44284;51.310;16.904;2023-05-09T00:28:33;8.75;;;6.00;;
58496;SDS011;44284;51.310;16.904;2023-05-09T00:30:59;11.27;;;6.25;;
58496;SDS011;44284;51.310;16.904;2023-05-09T00:33:25;8.57;;;5.43;;
58496;SDS011;44284;51.310;16.904;2023-05-09T00:35:54;9.48;;;6.15;;
58496;SDS011;44284;51.310;16.904;2023-05-09T00:38:23;9.13;;;5.90;;
58496;SDS011;44284;51.310;16.904;2023-05-09T00:40:49;9.50;;;5.90;;
58496;SDS011;44284;51.310;16.904;2023-05-09T00:43:16;11.73;;;6.13;;
58496;SDS011;44284;51.310;16.904;2023-05-09T00:45:45;9.05;;;6.03;;
58496;SDS011;44284;51.310;16.904;2023-05-09T00:48:11;10.50;;;6.45;;
58496;SDS011;44284;51.310;16.904;2023-05-09T00:50:39;9.65;;;6.38;;
58496;SDS011;44284;51.310;16.904;2023-05-09T00:53:05;10.77;;;6.78;;
58496;SDS011;44284;51.310;16.904;2023-05-09T00:55:31;9.85;;;6.55;;
58496;SDS011;44284;51.310;16.904;2023-05-09T00:57:58;11.75;;;6.80;;
58496;SDS011;44284;51.310;16.904;2023-05-09T01:00:24;10.52;;;6.03;;
58496;SDS011;44284;51.310;16.904;2023-05-09T01:02:52;9.73;;;6.22;;
58496;SDS011;44284;51.310;16.904;2023-05-09T01:05:18;11.00;;;6.75;;
58496;SDS011;44284;51.310;16.904;2023-05-09T01:07:55;10.35;;;6.43;;
58496;SDS011;44284;51.310;16.904;2023-05-09T01:12:58;11.85;;;6.75;;
58496;SDS011;44284;51.310;16.904;2023-05-09T01:20:52;11.52;;;6.38;;
58496;SDS011;44284;51.310;16.904;2023-05-09T01:31:34;10.02;;;6.82;;
58496;SDS011;44284;51.310;16.904;2023-05-09T01:34:02;10.15;;;6.57;;
58496;SDS011;44284;51.310;16.904;2023-05-09T01:36:30;13.20;;;7.38;;
58496;SDS011;44284;51.310;16.904;2023-05-09T01:38:57;9.43;;;6.40;;
58496;SDS011;44284;51.310;16.904;2023-05-09T01:41:24;13.80;;;7.55;;
58496;SDS011;44284;51.310;16.904;2023-05-09T01:43:52;11.07;;;7.10;;
58496;SDS011;44284;51.310;16.904;2023-05-09T01:46:20;28.33;;;7.15;;
58496;SDS011;44284;51.310;16.904;2023-05-09T01:48:46;10.65;;;7.07;;
58496;SDS011;44284;51.310;16.904;2023-05-09T01:51:13;9.00;;;6.18;;
58496;SDS011;44284;51.310;16.904;2023-05-09T01:53:39;10.80;;;7.20;;
58496;SDS011;44284;51.310;16.904;2023-05-09T01:56:07;11.13;;;6.47;;
58496;SDS011;44284;51.310;16.904;2023-05-09T01:58:34;11.25;;;7.07;;
58496;SDS011;44284;51.310;16.904;2023-05-09T02:01:01;12.48;;;6.78;;
58496;SDS011;44284;51.310;16.904;2023-05-09T02:03:28;13.45;;;6.90;;
58496;SDS011;44284;51.310;16.904;2023-05-09T02:05:54;12.50;;;7.18;;
58496;SDS011;44284;51.310;16.904;2023-05-09T02:08:21;14.52;;;6.60;;
58496;SDS011;44284;51.310;16.904;2023-05-09T02:10:48;13.07;;;7.18;;
58496;SDS011;44284;51.310;16.904;2023-05-09T02:13:14;10.55;;;7.15;;
58496;SDS011;44284;51.310;16.904;2023-05-09T02:15:40;9.15;;;6.85;;
58496;SDS011;44284;51.310;16.904;2023-05-09T02:18:07;10.77;;;7.43;;
58496;SDS011;44284;51.310;16.904;2023-05-09T02:20:33;11.43;;;6.88;;
58496;SDS011;44284;51.310;16.904;2023-05-09T02:23:00;13.43;;;7.35;;
58496;SDS011;44284;51.310;16.904;2023-05-09T02:25:26;11.13;;;7.43;;
58496;SDS011;44284;51.310;16.904;2023-05-09T02:27:52;12.45;;;6.65;;
58496;SDS011;44284;51.310;16.904;2023-05-09T02:30:20;12.73;;;7.03;;
58496;SDS011;44284;51.310;16.904;2023-05-09T02:32:49;10.68;;;7.03;;
58496;SDS011;44284;51.310;16.904;2023-05-09T02:35:16;11.63;;;6.90;;
58496;SDS011;44284;51.310;16.904;2023-05-09T02:37:44;10.88;;;7.57;;
58496;SDS011;44284;51.310;16.904;2023-05-09T02:40:10;10.15;;;7.00;;
58496;SDS011;44284;51.310;16.904;2023-05-09T02:42:36;10.40;;;7.20;;
58496;SDS011;44284;51.310;16.904;2023-05-09T02:45:03;10.75;;;7.60;;
58496;SDS011;44284;51.310;16.904;2023-05-09T02:47:29;10.98;;;7.25;;
58496;SDS011;44284;51.310;16.904;2023-05-09T02:49:56;11.48;;;7.68;;
58496;SDS011;44284;51.310;16.904;2023-05-09T02:52:22;11.80;;;7.90;;
58496;SDS011;44284;51.310;16.904;2023-05-09T02:54:48;12.88;;;7.88;;
58496;SDS011;44284;51.310;16.904;2023-05-09T02:57:14;10.73;;;7.03;;
58496;SDS011;44284;51.310;16.904;2023-05-09T02:59:40;12.10;;;7.43;;
58496;SDS011;44284;51.310;16.904;2023-05-09T03:02:06;10.20;;;6.80;;
58496;SDS011;44284;51.310;16.904;2023-05-09T03:04:32;12.25;;;6.97;;
58496;SDS011;44284;51.310;16.904;2023-05-09T03:06:58;12.82;;;7.60;;
58496;SDS011;44284;51.310;16.904;2023-05-09T03:09:24;14.15;;;7.65;;
58496;SDS011;44284;51.310;16.904;2023-05-09T03:11:50;14.25;;;7.78;;
58496;SDS011;44284;51.310;16.904;2023-05-09T03:14:16;12.88;;;7.35;;
58496;SDS011;44284;51.310;16.904;2023-05-09T03:16:42;13.73;;;8.55;;
58496;SDS011;44284;51.310;16.904;2023-05-09T03:19:08;13.30;;;7.68;;
58496;SDS011;44284;51.310;16.904;2023-05-09T03:21:34;13.00;;;8.13;;
58496;SDS011;44284;51.310;16.904;2023-05-09T03:24:01;11.57;;;8.15;;
58496;SDS011;44284;51.310;16.904;2023-05-09T03:26:28;13.60;;;7.90;;
58496;SDS011;44284;51.310;16.904;2023-05-09T03:28:54;11.55;;;7.57;;
58496;SDS011;44284;51.310;16.904;2023-05-09T03:31:20;11.07;;;7.30;;
58496;SDS011;44284;51.310;16.904;2023-05-09T03:33:46;11.77;;;8.07;;
58496;SDS011;44284;51.310;16.904;2023-05-09T03:36:13;11.50;;;7.57;;
58496;SDS011;44284;51.310;16.904;2023-05-09T03:38:39;11.95;;;7.65;;
58496;SDS011;44284;51.310;16.904;2023-05-09T03:41:05;10.77;;;7.20;;
58496;SDS011;44284;51.310;16.904;2023-05-09T03:43:31;9.18;;;6.50;;
58496;SDS011;44284;51.310;16.904;2023-05-09T03:45:57;13.73;;;7.38;;
58496;SDS011;44284;51.310;16.904;2023-05-09T03:48:23;10.65;;;6.75;;
58496;SDS011;44284;51.310;16.904;2023-05-09T03:50:49;11.95;;;6.85;;
58496;SDS011;44284;51.310;16.904;2023-05-09T03:53:15;11.48;;;7.30;;
58496;SDS011;44284;51.310;16.904;2023-05-09T03:55:41;10.07;;;7.07;;
58496;SDS011;44284;51.310;16.904;2023-05-09T03:58:07;9.20;;;5.93;;
58496;SDS011;44284;51.310;16.904;2023-05-09T04:00:33;10.52;;;7.10;;
58496;SDS011;44284;51.310;16.904;2023-05-09T04:02:59;10.10;;;7.07;;
58496;SDS011;44284;51.310;16.904;2023-05-09T04:05:25;11.32;;;6.53;;
58496;SDS011;44284;51.310;16.904;2023-05-09T04:07:52;12.02;;;6.78;;
58496;SDS011;44284;51.310;16.904;2023-05-09T04:10:18;10.80;;;7.10;;
58496;SDS011;44284;51.310;16.904;2023-05-09T04:12:44;8.93;;;6.43;;
58496;SDS011;44284;51.310;16.904;2023-05-09T04:15:10;11.85;;;6.70;;
58496;SDS011;44284;51.310;16.904;2023-05-09T04:17:36;9.45;;;6.10;;
58496;SDS011;44284;51.310;16.904;2023-05-09T04:20:02;8.70;;;5.63;;
58496;SDS011;44284;51.310;16.904;2023-05-09T04:22:28;9.95;;;5.95;;
58496;SDS011;44284;51.310;16.904;2023-05-09T04:24:54;9.40;;;5.88;;
58496;SDS011;44284;51.310;16.904;2023-05-09T04:27:21;11.43;;;6.20;;
58496;SDS011;44284;51.310;16.904;2023-05-09T04:29:47;8.38;;;5.40;;
58496;SDS011;44284;51.310;16.904;2023-05-09T04:32:13;9.20;;;5.90;;
58496;SDS011;44284;51.310;16.904;2023-05-09T04:34:40;11.80;;;5.97;;
58496;SDS011;44284;51.310;16.904;2023-05-09T04:37:06;9.77;;;6.05;;
58496;SDS011;44284;51.310;16.904;2023-05-09T04:39:33;9.23;;;6.28;;
58496;SDS011;44284;51.310;16.904;2023-05-09T04:41:59;8.40;;;5.80;;
58496;SDS011;44284;51.310;16.904;2023-05-09T04:44:25;10.27;;;6.13;;
58496;SDS011;44284;51.310;16.904;2023-05-09T04:46:51;10.85;;;6.38;;
58496;SDS011;44284;51.310;16.904;2023-05-09T04:49:19;10.68;;;6.30;;
58496;SDS011;44284;51.310;16.904;2023-05-09T04:51:45;9.38;;;6.22;;
58496;SDS011;44284;51.310;16.904;2023-05-09T04:54:11;9.80;;;6.18;;
58496;SDS011;44284;51.310;16.904;2023-05-09T04:56:37;9.77;;;6.63;;
58496;SDS011;44284;51.310;16.904;2023-05-09T04:59:03;9.77;;;6.80;;
58496;SDS011;44284;51.310;16.904;2023-05-09T05:01:29;9.23;;;6.18;;
58496;SDS011;44284;51.310;16.904;2023-05-09T05:03:55;10.15;;;6.88;;
58496;SDS011;44284;51.310;16.904;2023-05-09T05:06:21;9.68;;;6.90;;
58496;SDS011;44284;51.310;16.904;2023-05-09T05:08:47;10.10;;;6.35;;
58496;SDS011;44284;51.310;16.904;2023-05-09T05:11:13;12.77;;;6.72;;
58496;SDS011;44284;51.310;16.904;2023-05-09T05:13:41;8.65;;;6.03;;
58496;SDS011;44284;51.310;16.904;2023-05-09T05:16:08;10.52;;;6.63;;
58496;SDS011;44284;51.310;16.904;2023-05-09T05:18:34;10.63;;;6.43;;
58496;SDS011;44284;51.310;16.904;2023-05-09T05:21:00;11.20;;;7.07;;
58496;SDS011;44284;51.310;16.904;2023-05-09T05:23:26;9.63;;;7.10;;
58496;SDS011;44284;51.310;16.904;2023-05-09T05:25:52;12.55;;;7.25;;
58496;SDS011;44284;51.310;16.904;2023-05-09T05:28:18;11.32;;;7.40;;
58496;SDS011;44284;51.310;16.904;2023-05-09T05:30:44;12.25;;;7.63;;
58496;SDS011;44284;51.310;16.904;2023-05-09T05:33:10;11.82;;;7.20;;
58496;SDS011;44284;51.310;16.904;2023-05-09T05:35:36;11.60;;;7.28;;
58496;SDS011;44284;51.310;16.904;2023-05-09T05:38:02;11.48;;;7.07;;
58496;SDS011;44284;51.310;16.904;2023-05-09T05:40:28;11.68;;;7.55;;
58496;SDS011;44284;51.310;16.904;2023-05-09T05:42:54;10.82;;;8.05;;
58496;SDS011;44284;51.310;16.904;2023-05-09T05:45:20;13.07;;;8.50;;
58496;SDS011;44284;51.310;16.904;2023-05-09T05:47:46;12.50;;;8.38;;
58496;SDS011;44284;51.310;16.904;2023-05-09T05:50:12;11.90;;;8.77;;
58496;SDS011;44284;51.310;16.904;2023-05-09T05:52:38;12.30;;;8.35;;
58496;SDS011;44284;51.310;16.904;2023-05-09T05:55:05;12.45;;;8.48;;
58496;SDS011;44284;51.310;16.904;2023-05-09T05:57:31;12.32;;;9.10;;
58496;SDS011;44284;51.310;16.904;2023-05-09T05:59:59;12.38;;;8.90;;
58496;SDS011;44284;51.310;16.904;2023-05-09T06:02:25;13.48;;;8.68;;
58496;SDS011;44284;51.310;16.904;2023-05-09T06:04:51;12.85;;;9.15;;
58496;SDS011;44284;51.310;16.904;2023-05-09T06:07:17;12.90;;;9.43;;
58496;SDS011;44284;51.310;16.904;2023-05-09T06:09:43;12.95;;;8.52;;
58496;SDS011;44284;51.310;16.904;2023-05-09T06:12:09;13.40;;;9.52;;
58496;SDS011;44284;51.310;16.904;2023-05-09T06:14:35;15.07;;;8.93;;
58496;SDS011;44284;51.310;16.904;2023-05-09T06:17:02;15.10;;;9.57;;
58496;SDS011;44284;51.310;16.904;2023-05-09T06:19:28;11.65;;;8.80;;
58496;SDS011;44284;51.310;16.904;2023-05-09T06:21:54;14.32;;;9.10;;
58496;SDS011;44284;51.310;16.904;2023-05-09T06:24:20;12.98;;;8.60;;
58496;SDS011;44284;51.310;16.904;2023-05-09T06:26:46;15.00;;;9.13;;
58496;SDS011;44284;51.310;16.904;2023-05-09T06:29:14;12.75;;;8.45;;
58496;SDS011;44284;51.310;16.904;2023-05-09T06:31:40;13.10;;;9.00;;
58496;SDS011;44284;51.310;16.904;2023-05-09T06:34:06;13.25;;;8.93;;
58496;SDS011;44284;51.310;16.904;2023-05-09T06:36:33;10.55;;;8.90;;
58496;SDS011;44284;51.310;16.904;2023-05-09T06:38:59;10.80;;;7.13;;
58496;SDS011;44284;51.310;16.904;2023-05-09T06:41:25;12.68;;;8.30;;
58496;SDS011;44284;51.310;16.904;2023-05-09T06:43:52;12.55;;;8.15;;
58496;SDS011;44284;51.310;16.904;2023-05-09T06:46:18;13.45;;;8.75;;
58496;SDS011;44284;51.310;16.904;2023-05-09T06:48:44;13.18;;;8.65;;
58496;SDS011;44284;51.310;16.904;2023-05-09T06:51:10;11.32;;;8.57;;
58496;SDS011;44284;51.310;16.904;2023-05-09T06:53:36;15.50;;;8.70;;
58496;SDS011;44284;51.310;16.904;2023-05-09T06:56:04;12.52;;;8.50;;
58496;SDS011;44284;51.310;16.904;2023-05-09T06:58:30;14.65;;;8.65;;
58496;SDS011;44284;51.310;16.904;2023-05-09T07:00:56;12.07;;;8.57;;
58496;SDS011;44284;51.310;16.904;2023-05-09T07:03:22;10.98;;;8.52;;
58496;SDS011;44284;51.310;16.904;2023-05-09T07:05:48;10.80;;;8.27;;
58496;SDS011;44284;51.310;16.904;2023-05-09T07:08:15;12.38;;;8.57;;
58496;SDS011;44284;51.310;16.904;2023-05-09T07:10:41;11.85;;;8.35;;
58496;SDS011;44284;51.310;16.904;2023-05-09T07:13:07;13.88;;;8.30;;
58496;SDS011;44284;51.310;16.904;2023-05-09T07:15:33;12.80;;;8.57;;
58496;SDS011;44284;51.310;16.904;2023-05-09T07:18:00;12.27;;;7.43;;
58496;SDS011;44284;51.310;16.904;2023-05-09T07:20:26;11.52;;;8.27;;
58496;SDS011;44284;51.310;16.904;2023-05-09T07:22:52;11.27;;;7.97;;
58496;SDS011;44284;51.310;16.904;2023-05-09T07:25:18;12.55;;;8.60;;
58496;SDS011;44284;51.310;16.904;2023-05-09T07:27:44;11.43;;;8.20;;
58496;SDS011;44284;51.310;16.904;2023-05-09T07:30:10;15.70;;;8.70;;
58496;SDS011;44284;51.310;16.904;2023-05-09T07:32:36;14.05;;;8.63;;
58496;SDS011;44284;51.310;16.904;2023-05-09T07:35:03;11.98;;;8.63;;
58496;SDS011;44284;51.310;16.904;2023-05-09T07:37:30;14.88;;;11.55;;
58496;SDS011;44284;51.310;16.904;2023-05-09T07:39:56;15.57;;;10.25;;
58496;SDS011;44284;51.310;16.904;2023-05-09T07:42:22;12.40;;;8.18;;
58496;SDS011;44284;51.310;16.904;2023-05-09T07:44:48;11.88;;;8.43;;
58496;SDS011;44284;51.310;16.904;2023-05-09T07:47:14;15.88;;;7.55;;
58496;SDS011;44284;51.310;16.904;2023-05-09T07:49:40;9.57;;;7.40;;
58496;SDS011;44284;51.310;16.904;2023-05-09T07:52:07;9.60;;;7.18;;
58496;SDS011;44284;51.310;16.904;2023-05-09T07:54:33;10.02;;;7.10;;
58496;SDS011;44284;51.310;16.904;2023-05-09T07:56:59;12.00;;;7.15;;
58496;SDS011;44284;51.310;16.904;2023-05-09T07:59:26;9.75;;;5.85;;
58496;SDS011;44284;51.310;16.904;2023-05-09T08:01:52;11.75;;;6.68;;
58496;SDS011;44284;51.310;16.904;2023-05-09T08:04:18;7.63;;;5.50;;
58496;SDS011;44284;51.310;16.904;2023-05-09T08:06:44;8.45;;;5.60;;
58496;SDS011;44284;51.310;16.904;2023-05-09T08:09:10;11.85;;;6.32;;
58496;SDS011;44284;51.310;16.904;2023-05-09T08:11:36;7.28;;;5.35;;
58496;SDS011;44284;51.310;16.904;2023-05-09T08:14:02;7.70;;;5.40;;
58496;SDS011;44284;51.310;16.904;2023-05-09T08:16:28;9.82;;;5.78;;
58496;SDS011;44284;51.310;16.904;2023-05-09T08:18:54;9.68;;;5.68;;
58496;SDS011;44284;51.310;16.904;2023-05-09T08:21:20;9.27;;;5.68;;
58496;SDS011;44284;51.310;16.904;2023-05-09T08:23:47;10.55;;;6.07;;
58496;SDS011;44284;51.310;16.904;2023-05-09T08:26:13;7.28;;;5.25;;
58496;SDS011;44284;51.310;16.904;2023-05-09T08:28:39;12.98;;;5.88;;
58496;SDS011;44284;51.310;16.904;2023-05-09T08:31:05;7.95;;;5.78;;
58496;SDS011;44284;51.310;16.904;2023-05-09T08:33:31;8.27;;;6.15;;
58496;SDS011;44284;51.310;16.904;2023-05-09T08:35:57;7.55;;;5.63;;
58496;SDS011;44284;51.310;16.904;2023-05-09T08:38:23;9.85;;;5.65;;
58496;SDS011;44284;51.310;16.904;2023-05-09T08:40:49;8.07;;;5.75;;
58496;SDS011;44284;51.310;16.904;2023-05-09T08:43:15;6.68;;;5.15;;
58496;SDS011;44284;51.310;16.904;2023-05-09T08:45:45;10.40;;;6.65;;
58496;SDS011;44284;51.310;16.904;2023-05-09T08:48:15;10.27;;;6.35;;
58496;SDS011;44284;51.310;16.904;2023-05-09T08:50:44;9.00;;;6.13;;
58496;SDS011;44284;51.310;16.904;2023-05-09T08:53:10;8.60;;;5.55;;
58496;SDS011;44284;51.310;16.904;2023-05-09T08:55:37;8.75;;;5.32;;
58496;SDS011;44284;51.310;16.904;2023-05-09T08:58:03;10.05;;;6.22;;
58496;SDS011;44284;51.310;16.904;2023-05-09T09:00:30;9.25;;;6.05;;
58496;SDS011;44284;51.310;16.904;2023-05-09T09:02:57;8.85;;;5.80;;
58496;SDS011;44284;51.310;16.904;2023-05-09T09:05:25;8.20;;;6.15;;
58496;SDS011;44284;51.310;16.904;2023-05-09T09:07:52;9.00;;;5.88;;
58496;SDS011;44284;51.310;16.904;2023-05-09T09:10:18;9.82;;;6.65;;
58496;SDS011;44284;51.310;16.904;2023-05-09T09:12:46;10.77;;;6.20;;
58496;SDS011;44284;51.310;16.904;2023-05-09T09:15:13;8.98;;;6.40;;
58496;SDS011;44284;51.310;16.904;2023-05-09T09:17:41;7.65;;;5.75;;
58496;SDS011;44284;51.310;16.904;2023-05-09T09:20:09;9.65;;;5.93;;
58496;SDS011;44284;51.310;16.904;2023-05-09T09:22:36;8.27;;;6.22;;
58496;SDS011;44284;51.310;16.904;2023-05-09T09:25:02;11.13;;;6.70;;
58496;SDS011;44284;51.310;16.904;2023-05-09T09:27:28;7.93;;;5.93;;
58496;SDS011;44284;51.310;16.904;2023-05-09T09:30:05;10.10;;;5.97;;
58496;SDS011;44284;51.310;16.904;2023-05-09T09:32:32;9.23;;;5.82;;
58496;SDS011;44284;51.310;16.904;2023-05-09T09:35:08;12.00;;;6.45;;
58496;SDS011;44284;51.310;16.904;2023-05-09T09:37:35;12.02;;;6.50;;
58496;SDS011;44284;51.310;16.904;2023-05-09T09:40:06;9.13;;;6.53;;
58496;SDS011;44284;51.310;16.904;2023-05-09T09:42:39;9.45;;;6.57;;
58496;SDS011;44284;51.310;16.904;2023-05-09T09:47:35;8.05;;;5.70;;
58496;SDS011;44284;51.310;16.904;2023-05-09T09:50:17;11.02;;;5.32;;
58496;SDS011;44284;51.310;16.904;2023-05-09T09:55:16;7.57;;;5.72;;
58496;SDS011;44284;51.310;16.904;2023-05-09T09:57:42;8.13;;;5.85;;
58496;SDS011;44284;51.310;16.904;2023-05-09T10:00:12;8.52;;;5.45;;
58496;SDS011;44284;51.310;16.904;2023-05-09T10:02:49;10.05;;;5.75;;
58496;SDS011;44284;51.310;16.904;2023-05-09T10:05:23;8.02;;;5.75;;
58496;SDS011;44284;51.310;16.904;2023-05-09T10:07:50;8.07;;;5.28;;
58496;SDS011;44284;51.310;16.904;2023-05-09T10:10:18;7.47;;;5.70;;
58496;SDS011;44284;51.310;16.904;2023-05-09T10:12:45;7.50;;;5.57;;
58496;SDS011;44284;51.310;16.904;2023-05-09T10:15:12;7.80;;;5.25;;
58496;SDS011;44284;51.310;16.904;2023-05-09T10:17:42;8.02;;;5.28;;
58496;SDS011;44284;51.310;16.904;2023-05-09T10:20:08;7.70;;;4.90;;
58496;SDS011;44284;51.310;16.904;2023-05-09T10:22:35;8.52;;;5.38;;
58496;SDS011;44284;51.310;16.904;2023-05-09T10:25:04;7.43;;;5.40;;
58496;SDS011;44284;51.310;16.904;2023-05-09T10:27:33;7.28;;;5.07;;
58496;SDS011;44284;51.310;16.904;2023-05-09T10:30:05;8.40;;;5.35;;
58496;SDS011;44284;51.310;16.904;2023-05-09T10:32:42;8.68;;;5.45;;
58496;SDS011;44284;51.310;16.904;2023-05-09T10:35:11;8.10;;;5.40;;
58496;SDS011;44284;51.310;16.904;2023-05-09T10:37:40;9.10;;;5.32;;
58496;SDS011;44284;51.310;16.904;2023-05-09T10:40:07;6.80;;;5.25;;
58496;SDS011;44284;51.310;16.904;2023-05-09T10:42:33;6.82;;;4.70;;
58496;SDS011;44284;51.310;16.904;2023-05-09T10:45:00;8.05;;;4.88;;
58496;SDS011;44284;51.310;16.904;2023-05-09T10:47:26;9.13;;;4.90;;
58496;SDS011;44284;51.310;16.904;2023-05-09T10:49:53;8.27;;;5.38;;
58496;SDS011;44284;51.310;16.904;2023-05-09T10:52:20;6.30;;;4.15;;
58496;SDS011;44284;51.310;16.904;2023-05-09T10:55:02;9.55;;;4.57;;
58496;SDS011;44284;51.310;16.904;2023-05-09T10:57:29;7.38;;;4.85;;
58496;SDS011;44284;51.310;16.904;2023-05-09T10:59:56;7.38;;;4.70;;
58496;SDS011;44284;51.310;16.904;2023-05-09T11:02:22;7.60;;;4.97;;
58496;SDS011;44284;51.310;16.904;2023-05-09T11:05:12;7.85;;;4.75;;
58496;SDS011;44284;51.310;16.904;2023-05-09T11:07:38;9.50;;;4.70;;
58496;SDS011;44284;51.310;16.904;2023-05-09T11:10:06;6.93;;;4.47;;
58496;SDS011;44284;51.310;16.904;2023-05-09T11:12:32;8.50;;;4.70;;
58496;SDS011;44284;51.310;16.904;2023-05-09T11:15:05;7.53;;;4.05;;
58496;SDS011;44284;51.310;16.904;2023-05-09T11:17:31;6.18;;;3.67;;
58496;SDS011;44284;51.310;16.904;2023-05-09T11:19:58;7.60;;;4.43;;
58496;SDS011;44284;51.310;16.904;2023-05-09T11:25:13;5.82;;;3.85;;
58496;SDS011;44284;51.310;16.904;2023-05-09T11:30:05;5.65;;;3.78;;
58496;SDS011;44284;51.310;16.904;2023-05-09T11:32:32;8.32;;;3.88;;
58496;SDS011;44284;51.310;16.904;2023-05-09T11:37:38;7.53;;;4.05;;
58496;SDS011;44284;51.310;16.904;2023-05-09T11:40:05;8.32;;;4.07;;
58496;SDS011;44284;51.310;16.904;2023-05-09T11:42:31;7.30;;;4.20;;
58496;SDS011;44284;51.310;16.904;2023-05-09T11:44:57;8.80;;;4.47;;
58496;SDS011;44284;51.310;16.904;2023-05-09T11:47:24;7.53;;;3.85;;
58496;SDS011;44284;51.310;16.904;2023-05-09T11:49:51;7.22;;;4.35;;
58496;SDS011;44284;51.310;16.904;2023-05-09T11:52:18;6.70;;;4.00;;
58496;SDS011;44284;51.310;16.904;2023-05-09T11:54:45;5.10;;;3.92;;
58496;SDS011;44284;51.310;16.904;2023-05-09T11:57:11;7.90;;;4.05;;
58496;SDS011;44284;51.310;16.904;2023-05-09T11:59:41;8.80;;;3.97;;
58496;SDS011;44284;51.310;16.904;2023-05-09T12:02:08;5.43;;;3.90;;
58496;SDS011;44284;51.310;16.904;2023-05-09T12:04:35;6.47;;;4.15;;
58496;SDS011;44284;51.310;16.904;2023-05-09T12:07:01;7.60;;;4.55;;
58496;SDS011;44284;51.310;16.904;2023-05-09T12:09:30;8.02;;;4.03;;
58496;SDS011;44284;51.310;16.904;2023-05-09T12:11:57;5.53;;;3.88;;
58496;SDS011;44284;51.310;16.904;2023-05-09T12:14:31;7.13;;;4.30;;
58496;SDS011;44284;51.310;16.904;2023-05-09T12:16:58;7.15;;;4.45;;
58496;SDS011;44284;51.310;16.904;2023-05-09T12:19:24;6.97;;;4.10;;
58496;SDS011;44284;51.310;16.904;2023-05-09T12:21:54;8.18;;;4.60;;
58496;SDS011;44284;51.310;16.904;2023-05-09T12:24:21;8.88;;;4.15;;
58496;SDS011;44284;51.310;16.904;2023-05-09T12:26:48;6.53;;;4.10;;
58496;SDS011;44284;51.310;16.904;2023-05-09T12:29:14;7.20;;;4.32;;
58496;SDS011;44284;51.310;16.904;2023-05-09T12:31:40;7.40;;;3.72;;
58496;SDS011;44284;51.310;16.904;2023-05-09T12:34:07;5.45;;;3.80;;
58496;SDS011;44284;51.310;16.904;2023-05-09T12:36:34;8.60;;;3.90;;
58496;SDS011;44284;51.310;16.904;2023-05-09T12:39:01;9.60;;;4.32;;
58496;SDS011;44284;51.310;16.904;2023-05-09T12:41:27;6.28;;;3.60;;
58496;SDS011;44284;51.310;16.904;2023-05-09T12:43:53;7.68;;;3.55;;
58496;SDS011;44284;51.310;16.904;2023-05-09T12:46:20;7.07;;;3.35;;
58496;SDS011;44284;51.310;16.904;2023-05-09T12:48:46;6.75;;;4.13;;
58496;SDS011;44284;51.310;16.904;2023-05-09T12:51:22;7.30;;;3.55;;
58496;SDS011;44284;51.310;16.904;2023-05-09T12:56:14;6.65;;;3.30;;
58496;SDS011;44284;51.310;16.904;2023-05-09T12:59:14;7.57;;;3.55;;
58496;SDS011;44284;51.310;16.904;2023-05-09T13:01:34;6.32;;;2.90;;
58496;SDS011;44284;51.310;16.904;2023-05-09T13:04:01;6.72;;;3.92;;
58496;SDS011;44284;51.310;16.904;2023-05-09T13:06:27;8.10;;;3.70;;
58496;SDS011;44284;51.310;16.904;2023-05-09T13:08:58;4.78;;;3.20;;
58496;SDS011;44284;51.310;16.904;2023-05-09T13:11:25;9.32;;;3.90;;
58496;SDS011;44284;51.310;16.904;2023-05-09T13:13:52;4.95;;;2.92;;
58496;SDS011;44284;51.310;16.904;2023-05-09T13:16:18;5.43;;;3.10;;
58496;SDS011;44284;51.310;16.904;2023-05-09T13:18:45;8.13;;;3.63;;
58496;SDS011;44284;51.310;16.904;2023-05-09T13:21:11;6.80;;;3.55;;
58496;SDS011;44284;51.310;16.904;2023-05-09T13:23:37;6.00;;;3.53;;
58496;SDS011;44284;51.310;16.904;2023-05-09T13:26:03;6.45;;;3.30;;
58496;SDS011;44284;51.310;16.904;2023-05-09T13:28:29;6.93;;;3.22;;
58496;SDS011;44284;51.310;16.904;2023-05-09T13:30:55;6.93;;;3.15;;
58496;SDS011;44284;51.310;16.904;2023-05-09T13:33:21;7.63;;;3.67;;
58496;SDS011;44284;51.310;16.904;2023-05-09T13:35:47;8.85;;;3.78;;
58496;SDS011;44284;51.310;16.904;2023-05-09T13:38:13;8.15;;;3.80;;
58496;SDS011;44284;51.310;16.904;2023-05-09T13:40:39;8.02;;;3.75;;
58496;SDS011;44284;51.310;16.904;2023-05-09T13:43:05;6.47;;;3.70;;
58496;SDS011;44284;51.310;16.904;2023-05-09T13:45:31;8.35;;;3.78;;
58496;SDS011;44284;51.310;16.904;2023-05-09T13:47:57;8.80;;;3.92;;
58496;SDS011;44284;51.310;16.904;2023-05-09T13:50:23;6.57;;;3.90;;
58496;SDS011;44284;51.310;16.904;2023-05-09T13:52:49;5.30;;;3.53;;
58496;SDS011;44284;51.310;16.904;2023-05-09T13:55:16;6.22;;;3.42;;
58496;SDS011;44284;51.310;16.904;2023-05-09T13:57:42;6.72;;;3.50;;
58496;SDS011;44284;51.310;16.904;2023-05-09T14:00:09;5.80;;;3.53;;
58496;SDS011;44284;51.310;16.904;2023-05-09T14:02:35;8.38;;;3.33;;
58496;SDS011;44284;51.310;16.904;2023-05-09T14:05:01;8.93;;;3.70;;
58496;SDS011;44284;51.310;16.904;2023-05-09T14:07:28;6.93;;;4.00;;
58496;SDS011;44284;51.310;16.904;2023-05-09T14:09:54;9.77;;;3.60;;
58496;SDS011;44284;51.310;16.904;2023-05-09T14:12:22;8.23;;;4.32;;
58496;SDS011;44284;51.310;16.904;2023-05-09T14:14:48;7.70;;;3.83;;
58496;SDS011;44284;51.310;16.904;2023-05-09T14:17:14;8.85;;;4.20;;
58496;SDS011;44284;51.310;16.904;2023-05-09T14:19:40;8.40;;;4.28;;
58496;SDS011;44284;51.310;16.904;2023-05-09T14:22:06;6.47;;;3.50;;
58496;SDS011;44284;51.310;16.904;2023-05-09T14:24:33;9.43;;;4.43;;
58496;SDS011;44284;51.310;16.904;2023-05-09T14:27:00;6.10;;;3.40;;
58496;SDS011;44284;51.310;16.904;2023-05-09T14:29:26;6.50;;;3.55;;
58496;SDS011;44284;51.310;16.904;2023-05-09T14:31:52;7.18;;;3.97;;
58496;SDS011;44284;51.310;16.904;2023-05-09T14:34:18;7.07;;;3.90;;
58496;SDS011;44284;51.310;16.904;2023-05-09T14:36:44;10.43;;;3.95;;
58496;SDS011;44284;51.310;16.904;2023-05-09T14:39:10;5.57;;;3.60;;
58496;SDS011;44284;51.310;16.904;2023-05-09T14:41:37;7.75;;;4.30;;
58496;SDS011;44284;51.310;16.904;2023-05-09T14:44:03;7.57;;;4.00;;
58496;SDS011;44284;51.310;16.904;2023-05-09T14:46:29;8.30;;;4.25;;
58496;SDS011;44284;51.310;16.904;2023-05-09T14:48:55;9.45;;;4.03;;
58496;SDS011;44284;51.310;16.904;2023-05-09T14:51:27;7.60;;;4.00;;
58496;SDS011;44284;51.310;16.904;2023-05-09T14:53:54;7.70;;;4.32;;
58496;SDS011;44284;51.310;16.904;2023-05-09T14:56:20;6.72;;;4.15;;
58496;SDS011;44284;51.310;16.904;2023-05-09T14:58:46;6.45;;;3.95;;